createdAt,value
2022-08-03T00:00:30.331Z,19.10
2022-08-03T00:02:57.457Z,19.10
2022-08-03T00:05:24.535Z,19.10
2022-08-03T00:07:51.506Z,19.20
2022-08-03T00:10:19.957Z,19.20
2022-08-03T00:12:48.129Z,19.10
2022-08-03T00:15:16.885Z,19.10
2022-08-03T00:17:53.340Z,19.00
2022-08-03T00:20:22.029Z,18.90
2022-08-03T00:22:50.007Z,18.90
2022-08-03T00:25:17.104Z,18.90
2022-08-03T00:27:44.063Z,18.90
2022-08-03T00:30:11.524Z,18.90
2022-08-03T00:32:44.234Z,18.90
2022-08-03T00:35:32.517Z,18.90
2022-08-03T00:38:00.026Z,18.90
2022-08-03T00:40:27.376Z,18.80
2022-08-03T00:42:54.364Z,18.80
2022-08-03T00:45:23.097Z,18.80
2022-08-03T00:47:50.621Z,18.70
2022-08-03T00:50:19.115Z,18.70
2022-08-03T00:52:47.228Z,18.80
2022-08-03T00:55:14.587Z,18.80
2022-08-03T00:57:43.603Z,18.70
2022-08-03T01:00:13.812Z,18.70
2022-08-03T01:02:41.546Z,18.70
2022-08-03T01:05:10.869Z,18.70
2022-08-03T01:07:44.038Z,18.70
2022-08-03T01:10:18.529Z,18.70
2022-08-03T01:14:00.246Z,18.60
2022-08-03T01:16:03.551Z,18.50
2022-08-03T01:18:56.988Z,18.60
2022-08-03T01:21:29.056Z,18.60
2022-08-03T01:24:12.263Z,18.50
2022-08-03T01:27:05.252Z,18.50
2022-08-03T01:29:41.783Z,18.50
2022-08-03T01:32:54.525Z,18.50
2022-08-03T01:35:12.837Z,18.50
2022-08-03T01:37:49.031Z,18.50
2022-08-03T01:40:17.613Z,18.40
2022-08-03T01:42:46.431Z,18.40
2022-08-03T01:45:15.479Z,18.30
2022-08-03T01:47:44.601Z,18.30
2022-08-03T01:50:13.147Z,18.30
2022-08-03T01:52:42.193Z,18.20
2022-08-03T01:55:10.921Z,18.20
2022-08-03T01:58:05.439Z,18.20
2022-08-03T02:00:28.262Z,18.20
2022-08-03T02:02:56.207Z,18.20
2022-08-03T02:05:24.858Z,18.20
2022-08-03T02:07:52.642Z,18.20
2022-08-03T02:10:23.563Z,18.10
2022-08-03T02:13:05.307Z,18.10
2022-08-03T02:15:33.692Z,18.10
2022-08-03T02:18:03.326Z,18.10
2022-08-03T02:20:33.272Z,18.10
2022-08-03T02:23:00.587Z,17.90
2022-08-03T02:25:28.766Z,17.80
2022-08-03T02:28:06.615Z,17.80
2022-08-03T02:30:39.284Z,17.80
2022-08-03T02:33:10.879Z,17.90
2022-08-03T02:35:40.104Z,17.90
2022-08-03T02:38:10.304Z,17.90
2022-08-03T02:40:40.652Z,17.80
2022-08-03T02:43:17.005Z,17.80
2022-08-03T02:45:48.135Z,17.80
2022-08-03T02:48:25.273Z,17.70
2022-08-03T02:50:54.306Z,17.70
2022-08-03T02:53:23.961Z,17.50
2022-08-03T02:55:51.522Z,17.50
2022-08-03T02:58:24.018Z,17.60
2022-08-03T03:00:52.647Z,17.60
2022-08-03T03:03:20.964Z,17.70
2022-08-03T03:05:55.485Z,17.60
2022-08-03T03:08:28.396Z,17.70
2022-08-03T03:11:00.847Z,17.60
2022-08-03T03:13:30.354Z,17.30
2022-08-03T03:16:01.536Z,17.30
2022-08-03T03:18:31.089Z,17.40
2022-08-03T03:21:00.698Z,17.30
2022-08-03T03:23:29.276Z,17.30
2022-08-03T03:26:08.228Z,17.40
2022-08-03T03:28:38.037Z,17.30
2022-08-03T03:31:07.370Z,17.30
2022-08-03T03:33:38.201Z,17.30
2022-08-03T03:36:06.581Z,17.30
2022-08-03T03:38:34.393Z,17.30
2022-08-03T03:41:01.796Z,17.30
2022-08-03T03:43:29.606Z,17.20
2022-08-03T03:45:58.681Z,17.20
2022-08-03T03:48:26.466Z,17.20
2022-08-03T03:50:54.030Z,17.20
2022-08-03T03:53:21.185Z,17.30
2022-08-03T03:56:01.905Z,17.30
2022-08-03T03:58:30.723Z,17.20
2022-08-03T04:00:57.886Z,17.10
2022-08-03T04:03:25.000Z,17.00
2022-08-03T04:06:10.645Z,17.00
2022-08-03T04:08:56.442Z,17.00
2022-08-03T04:11:29.328Z,17.10
2022-08-03T04:14:38.368Z,17.10
2022-08-03T04:17:08.863Z,17.10
2022-08-03T04:19:52.700Z,17.00
2022-08-03T04:22:24.157Z,17.00
2022-08-03T04:25:01.455Z,17.00
2022-08-03T04:27:34.852Z,17.10
2022-08-03T04:30:04.884Z,17.10
2022-08-03T04:32:32.797Z,17.10
2022-08-03T04:35:00.312Z,17.10
2022-08-03T04:37:42.641Z,17.10
2022-08-03T04:40:15.501Z,17.10
2022-08-03T04:42:44.234Z,17.10
2022-08-03T04:45:13.447Z,17.20
2022-08-03T04:47:41.188Z,17.20
2022-08-03T04:50:12.985Z,17.30
2022-08-03T04:52:41.601Z,17.40
2022-08-03T04:55:09.249Z,17.50
2022-08-03T04:57:36.214Z,17.50
2022-08-03T05:00:05.000Z,17.60
2022-08-03T05:02:32.340Z,17.60
2022-08-03T05:04:59.805Z,17.70
2022-08-03T05:07:35.814Z,17.70
2022-08-03T05:10:14.817Z,17.80
2022-08-03T05:12:44.662Z,17.80
2022-08-03T05:15:12.291Z,17.80
2022-08-03T05:17:39.432Z,17.80
2022-08-03T05:20:06.911Z,17.80
2022-08-03T05:22:33.912Z,17.90
2022-08-03T05:25:02.270Z,18.00
2022-08-03T05:27:29.324Z,18.00
2022-08-03T05:29:56.285Z,18.10
2022-08-03T05:32:43.308Z,18.10
2022-08-03T05:35:57.424Z,18.20
2022-08-03T05:37:57.301Z,18.20
2022-08-03T05:40:24.899Z,18.20
2022-08-03T05:42:54.132Z,18.30
2022-08-03T05:45:24.271Z,18.40
2022-08-03T05:47:54.916Z,18.50
2022-08-03T05:50:22.094Z,18.50
2022-08-03T05:52:49.201Z,18.50
2022-08-03T05:55:16.806Z,18.60
2022-08-03T05:57:47.007Z,18.80
2022-08-03T06:00:16.917Z,18.90
2022-08-03T06:02:43.958Z,18.90
2022-08-03T06:05:11.008Z,19.00
2022-08-03T06:07:38.266Z,19.10
2022-08-03T06:10:36.387Z,19.10
2022-08-03T06:12:53.616Z,19.30
2022-08-03T06:15:20.977Z,19.50
2022-08-03T06:17:52.384Z,19.70
2022-08-03T06:20:20.496Z,19.80
2022-08-03T06:22:51.370Z,19.80
2022-08-03T06:25:27.674Z,19.80
2022-08-03T06:27:54.623Z,20.00
2022-08-03T06:30:21.710Z,20.10
2022-08-03T06:32:51.808Z,20.20
2022-08-03T06:35:20.634Z,20.30
2022-08-03T06:37:49.726Z,20.40
2022-08-03T06:40:21.811Z,20.50
2022-08-03T06:42:51.764Z,20.60
2022-08-03T06:45:18.971Z,20.60
2022-08-03T06:47:46.036Z,20.80
2022-08-03T06:50:17.935Z,20.90
2022-08-03T06:52:46.077Z,20.90
2022-08-03T06:55:13.100Z,21.10
2022-08-03T06:57:40.088Z,21.20
2022-08-03T07:00:12.292Z,21.40
2022-08-03T07:02:40.196Z,21.50
2022-08-03T07:05:08.862Z,21.60
2022-08-03T07:07:36.401Z,21.70
2022-08-03T07:10:05.438Z,21.80
2022-08-03T07:12:33.966Z,22.00
2022-08-03T07:15:03.334Z,22.10
2022-08-03T07:17:32.820Z,22.10
2022-08-03T07:20:01.411Z,22.30
2022-08-03T07:22:28.593Z,22.30
2022-08-03T07:24:56.894Z,22.40
2022-08-03T07:27:23.991Z,22.50
2022-08-03T07:29:50.964Z,22.70
2022-08-03T07:32:18.506Z,22.80
2022-08-03T07:34:45.892Z,22.80
2022-08-03T07:37:12.874Z,23.00
2022-08-03T07:39:39.841Z,23.00
2022-08-03T07:42:07.118Z,23.10
2022-08-03T07:44:34.151Z,23.30
2022-08-03T07:47:03.481Z,23.40
2022-08-03T07:49:30.860Z,23.40
2022-08-03T07:52:16.528Z,23.50
2022-08-03T07:54:43.888Z,23.50
2022-08-03T07:57:10.929Z,23.60
2022-08-03T07:59:56.655Z,23.70
2022-08-03T08:02:26.788Z,23.80
2022-08-03T08:04:53.797Z,23.80
2022-08-03T08:07:20.810Z,23.90
2022-08-03T08:09:47.868Z,24.00
2022-08-03T08:12:15.363Z,24.10
2022-08-03T08:14:45.917Z,24.10
2022-08-03T08:17:13.439Z,24.10
2022-08-03T08:19:51.445Z,24.30
2022-08-03T08:22:23.505Z,24.40
2022-08-03T08:24:59.513Z,24.40
2022-08-03T08:27:28.298Z,24.50
2022-08-03T08:30:19.435Z,24.70
2022-08-03T08:32:47.414Z,24.70
2022-08-03T08:35:14.917Z,24.70
2022-08-03T08:37:43.338Z,24.80
2022-08-03T08:40:23.484Z,24.90
2022-08-03T08:42:59.310Z,24.90
2022-08-03T08:45:27.794Z,24.80
2022-08-03T08:48:01.107Z,24.90
2022-08-03T08:50:30.887Z,25.10
2022-08-03T08:53:02.822Z,25.10
2022-08-03T08:55:30.633Z,25.10
2022-08-03T08:58:21.002Z,25.10
2022-08-03T09:00:48.626Z,25.20
2022-08-03T09:03:29.174Z,25.40
2022-08-03T09:06:02.415Z,25.40
2022-08-03T09:08:31.703Z,25.40
2022-08-03T09:11:01.928Z,25.50
2022-08-03T09:13:30.518Z,25.60
2022-08-03T09:16:21.815Z,25.70
2022-08-03T09:18:54.609Z,25.70
2022-08-03T09:21:33.983Z,25.80
2022-08-03T09:24:05.327Z,25.80
2022-08-03T09:26:35.988Z,25.90
2022-08-03T09:29:14.025Z,26.00
2022-08-03T09:31:45.031Z,26.20
2022-08-03T09:34:15.576Z,26.20
2022-08-03T09:36:43.330Z,26.30
2022-08-03T09:39:40.186Z,26.40
2022-08-03T09:42:11.311Z,26.60
2022-08-03T09:44:47.222Z,26.60
2022-08-03T09:47:17.776Z,26.60
2022-08-03T09:50:04.594Z,26.60
2022-08-03T09:52:39.043Z,26.70
2022-08-03T09:56:31.107Z,26.80
2022-08-03T09:58:10.928Z,26.90
2022-08-03T10:01:24.078Z,27.00
2022-08-03T10:04:03.999Z,27.10
2022-08-03T10:06:32.364Z,27.30
2022-08-03T10:09:15.478Z,27.40
2022-08-03T10:11:44.610Z,27.50
2022-08-03T10:14:19.502Z,27.50
2022-08-03T10:16:47.852Z,27.60
2022-08-03T10:19:15.879Z,27.80
2022-08-03T10:21:50.107Z,27.80
2022-08-03T10:24:23.982Z,27.70
2022-08-03T10:26:51.786Z,27.80
2022-08-03T10:29:25.422Z,27.80
2022-08-03T10:31:57.779Z,27.80
2022-08-03T10:34:27.594Z,28.00
2022-08-03T10:36:59.279Z,28.20
2022-08-03T10:39:30.066Z,28.30
2022-08-03T10:41:59.845Z,28.20
2022-08-03T10:44:32.679Z,28.20
2022-08-03T10:47:00.868Z,28.10
2022-08-03T10:49:33.957Z,28.30
2022-08-03T10:52:13.757Z,28.30
2022-08-03T10:55:10.778Z,28.20
2022-08-03T10:57:46.470Z,28.10
2022-08-03T11:00:24.361Z,28.00
2022-08-03T11:03:11.263Z,28.00
2022-08-03T11:05:40.057Z,28.20
2022-08-03T11:08:28.179Z,28.30
2022-08-03T11:11:19.502Z,28.30
2022-08-03T11:14:12.866Z,28.30
2022-08-03T11:16:42.567Z,28.50
2022-08-03T11:19:11.601Z,28.90
2022-08-03T11:21:50.906Z,28.70
2022-08-03T11:24:36.655Z,28.90
2022-08-03T11:27:33.499Z,28.80
2022-08-03T11:30:10.710Z,28.70
2022-08-03T11:32:37.656Z,28.90
2022-08-03T11:35:13.576Z,28.70
2022-08-03T11:38:04.418Z,28.60
2022-08-03T11:40:48.755Z,28.80
2022-08-03T11:43:31.792Z,28.70
2022-08-03T11:46:04.949Z,28.90
2022-08-03T11:48:45.734Z,28.90
2022-08-03T11:51:28.847Z,28.90
2022-08-03T11:53:57.974Z,29.10
2022-08-03T11:56:25.861Z,29.10
2022-08-03T11:59:18.149Z,29.00
2022-08-03T12:01:46.134Z,29.20
2022-08-03T12:04:13.143Z,29.10
2022-08-03T12:06:56.011Z,29.00
2022-08-03T12:09:23.089Z,29.20
2022-08-03T12:11:59.659Z,29.20
2022-08-03T12:14:50.112Z,29.20
2022-08-03T12:17:15.544Z,29.20
2022-08-03T12:19:43.570Z,29.10
2022-08-03T12:22:10.619Z,29.00
2022-08-03T12:24:42.594Z,29.10
2022-08-03T12:27:09.807Z,29.30
2022-08-03T12:29:37.174Z,29.50
2022-08-03T12:32:04.401Z,29.60
2022-08-03T12:34:50.250Z,29.80
2022-08-03T12:37:22.653Z,29.90
2022-08-03T12:40:02.586Z,30.00
2022-08-03T12:42:36.756Z,29.80
2022-08-03T12:45:20.555Z,29.80
2022-08-03T12:47:59.157Z,29.70
2022-08-03T12:50:26.304Z,29.70
2022-08-03T12:52:53.787Z,29.90
2022-08-03T12:55:22.282Z,30.00
2022-08-03T12:57:49.860Z,30.00
2022-08-03T13:00:21.386Z,30.00
2022-08-03T13:03:38.273Z,30.20
2022-08-03T13:05:51.000Z,30.20
2022-08-03T13:08:19.994Z,30.20
2022-08-03T13:10:47.492Z,30.40
2022-08-03T13:13:14.574Z,30.30
2022-08-03T13:15:47.658Z,30.30
2022-08-03T13:18:17.540Z,30.40
2022-08-03T13:20:44.847Z,30.60
2022-08-03T13:23:13.892Z,30.50
2022-08-03T13:25:55.275Z,30.40
2022-08-03T13:28:23.313Z,30.30
2022-08-03T13:30:50.432Z,30.10
2022-08-03T13:33:18.587Z,30.00
2022-08-03T13:35:45.627Z,30.20
2022-08-03T13:38:12.629Z,30.00
2022-08-03T13:40:42.433Z,30.00
2022-08-03T13:43:09.637Z,30.30
2022-08-03T13:45:36.646Z,30.20
2022-08-03T13:48:03.822Z,30.40
2022-08-03T13:50:31.490Z,30.50
2022-08-03T13:52:58.438Z,30.40
2022-08-03T13:55:25.456Z,30.40
2022-08-03T13:58:05.335Z,30.30
2022-08-03T14:00:35.328Z,30.10
2022-08-03T14:03:13.423Z,30.40
2022-08-03T14:05:42.734Z,30.50
2022-08-03T14:08:10.470Z,30.40
2022-08-03T14:10:39.659Z,30.30
2022-08-03T14:13:07.382Z,30.40
2022-08-03T14:15:37.331Z,30.50
2022-08-03T14:18:12.902Z,30.50
2022-08-03T14:20:50.305Z,30.60
2022-08-03T14:23:21.478Z,30.50
2022-08-03T14:25:51.756Z,30.40
2022-08-03T14:28:24.170Z,30.50
2022-08-03T14:30:52.085Z,30.40
2022-08-03T14:33:19.176Z,30.30
2022-08-03T14:35:46.572Z,30.10
2022-08-03T14:38:13.790Z,30.00
2022-08-03T14:40:40.990Z,30.00
2022-08-03T14:43:08.013Z,30.20
2022-08-03T14:45:35.159Z,30.20
2022-08-03T14:50:34.600Z,30.20
2022-08-03T14:50:51.626Z,30.40
2022-08-03T14:53:19.740Z,30.50
2022-08-03T14:55:50.520Z,30.50
2022-08-03T14:58:28.632Z,30.60
2022-08-03T15:00:56.572Z,30.60
2022-08-03T15:03:25.253Z,30.70
2022-08-03T15:05:53.960Z,30.70
2022-08-03T15:08:22.212Z,30.60
2022-08-03T15:10:49.818Z,30.50
2022-08-03T15:13:18.227Z,30.40
2022-08-03T15:15:45.473Z,30.20
2022-08-03T15:18:12.514Z,30.10
2022-08-03T15:20:45.008Z,30.00
2022-08-03T15:23:17.623Z,30.00
2022-08-03T15:26:07.048Z,30.00
2022-08-03T15:28:32.661Z,29.90
2022-08-03T15:30:59.980Z,29.90
2022-08-03T15:33:26.996Z,29.80
2022-08-03T15:35:54.251Z,29.70
2022-08-03T15:38:26.051Z,29.80
2022-08-03T15:40:54.869Z,29.90
2022-08-03T15:43:24.926Z,29.80
2022-08-03T15:46:12.621Z,29.60
2022-08-03T15:48:39.742Z,29.50
2022-08-03T15:51:07.520Z,29.70
2022-08-03T15:53:34.709Z,29.90
2022-08-03T15:56:09.380Z,30.00
2022-08-03T15:59:03.522Z,30.00
2022-08-03T16:01:26.487Z,29.90
2022-08-03T16:03:53.876Z,29.90
2022-08-03T16:06:35.199Z,29.70
2022-08-03T16:09:23.652Z,29.60
2022-08-03T16:11:55.777Z,29.50
2022-08-03T16:14:32.463Z,29.40
2022-08-03T16:17:03.185Z,29.50
2022-08-03T16:19:30.211Z,29.50
2022-08-03T16:21:57.213Z,29.50
2022-08-03T16:24:28.020Z,29.50
2022-08-03T16:26:55.992Z,29.50
2022-08-03T16:29:23.809Z,29.50
2022-08-03T16:31:52.151Z,29.50
2022-08-03T16:34:20.150Z,29.50
2022-08-03T16:36:47.172Z,29.40
2022-08-03T16:39:14.267Z,29.30
2022-08-03T16:41:54.490Z,29.30
2022-08-03T16:44:30.589Z,29.40
2022-08-03T16:46:59.167Z,29.30
2022-08-03T16:49:54.994Z,29.20
2022-08-03T16:52:13.678Z,29.20
2022-08-03T16:54:43.843Z,29.20
2022-08-03T16:57:29.707Z,29.10
2022-08-03T17:00:06.051Z,29.10
2022-08-03T17:02:33.061Z,29.00
2022-08-03T17:05:00.226Z,29.10
2022-08-03T17:07:29.618Z,29.00
2022-08-03T17:09:57.884Z,29.00
2022-08-03T17:12:26.000Z,29.00
2022-08-03T17:14:54.449Z,28.90
2022-08-03T17:17:47.713Z,28.80
2022-08-03T17:20:21.669Z,28.80
2022-08-03T17:23:06.946Z,28.80
2022-08-03T17:26:01.707Z,28.70
2022-08-03T17:28:49.290Z,28.70
2022-08-03T17:31:23.382Z,28.60
2022-08-03T17:34:00.262Z,28.50
2022-08-03T17:36:47.486Z,28.40
2022-08-03T17:39:16.642Z,28.30
2022-08-03T17:41:49.090Z,28.30
2022-08-03T17:44:31.159Z,28.30
2022-08-03T17:47:06.487Z,28.10
2022-08-03T17:49:40.077Z,28.00
2022-08-03T17:52:27.649Z,27.90
2022-08-03T17:55:57.277Z,27.80
2022-08-03T17:58:06.052Z,27.80
2022-08-03T18:00:53.202Z,27.70
2022-08-03T18:03:58.126Z,27.60
2022-08-03T18:06:35.335Z,27.60
2022-08-03T18:09:05.316Z,27.50
2022-08-03T18:11:55.408Z,27.50
2022-08-03T18:14:34.387Z,27.30
2022-08-03T18:17:10.428Z,27.20
2022-08-03T18:20:01.370Z,27.10
2022-08-03T18:22:27.426Z,27.00
2022-08-03T18:25:00.286Z,26.90
2022-08-03T18:27:45.426Z,26.80
2022-08-03T18:30:15.336Z,26.60
2022-08-03T18:32:44.052Z,26.60
2022-08-03T18:35:53.099Z,26.50
2022-08-03T18:38:18.926Z,26.40
2022-08-03T18:40:48.597Z,26.40
2022-08-03T18:43:17.604Z,26.30
2022-08-03T18:45:55.987Z,26.30
2022-08-03T18:49:11.288Z,26.10
2022-08-03T18:51:43.092Z,25.80
2022-08-03T18:54:45.546Z,25.60
2022-08-03T18:57:12.866Z,25.40
2022-08-03T19:00:14.413Z,25.30
2022-08-03T19:02:58.876Z,25.40
2022-08-03T19:05:56.402Z,25.50
2022-08-03T19:08:30.607Z,25.50
2022-08-03T19:11:02.839Z,25.30
2022-08-03T19:13:50.369Z,25.10
2022-08-03T19:16:32.363Z,24.90
2022-08-03T19:19:02.213Z,24.70
2022-08-03T19:21:30.431Z,24.50
2022-08-03T19:24:03.112Z,24.50
2022-08-03T19:26:38.923Z,24.40
2022-08-03T19:29:14.857Z,24.20
2022-08-03T19:31:58.675Z,24.10
2022-08-03T19:34:29.678Z,24.10
2022-08-03T19:36:58.995Z,24.10
2022-08-03T19:39:26.434Z,24.00
2022-08-03T19:42:08.167Z,23.90
2022-08-03T19:44:55.567Z,24.00
2022-08-03T19:47:47.760Z,23.80
2022-08-03T19:50:19.317Z,23.70
2022-08-03T19:52:48.201Z,23.70
2022-08-03T19:55:17.866Z,23.60
2022-08-03T19:57:49.210Z,23.40
2022-08-03T20:00:19.908Z,23.30
2022-08-03T20:02:53.384Z,23.20
2022-08-03T20:05:20.905Z,23.30
2022-08-03T20:07:50.887Z,23.40
2022-08-03T20:10:19.419Z,23.50
2022-08-03T20:12:49.134Z,23.50
2022-08-03T20:15:18.094Z,23.20
2022-08-03T20:17:56.801Z,23.20
2022-08-03T20:20:33.172Z,23.20
2022-08-03T20:23:07.139Z,23.20
2022-08-03T20:25:57.261Z,23.10
2022-08-03T20:28:50.167Z,23.00
2022-08-03T20:31:21.650Z,23.00
2022-08-03T20:33:50.943Z,22.80
2022-08-03T20:36:19.084Z,22.90
2022-08-03T20:38:50.997Z,22.80
2022-08-03T20:41:19.457Z,22.80
2022-08-03T20:43:49.416Z,22.80
2022-08-03T20:46:31.355Z,22.60
2022-08-03T20:49:03.777Z,22.50
2022-08-03T20:51:48.949Z,22.50
2022-08-03T20:54:28.779Z,22.50
2022-08-03T20:57:03.817Z,22.60
2022-08-03T20:59:50.193Z,22.50
2022-08-03T21:02:30.340Z,22.60
2022-08-03T21:05:03.596Z,22.60
2022-08-03T21:08:05.263Z,22.50
2022-08-03T21:10:37.861Z,22.50
2022-08-03T21:13:16.746Z,22.50
2022-08-03T21:16:12.361Z,22.30
2022-08-03T21:18:49.695Z,22.20
2022-08-03T21:21:19.051Z,22.20
2022-08-03T21:23:50.151Z,22.20
2022-08-03T21:26:22.391Z,22.20
2022-08-03T21:28:51.593Z,22.10
2022-08-03T21:31:25.348Z,21.90
2022-08-03T21:33:58.455Z,22.00
2022-08-03T21:36:32.105Z,22.00
2022-08-03T21:38:59.935Z,22.00
2022-08-03T21:41:28.841Z,22.00
2022-08-03T21:43:56.006Z,22.00
2022-08-03T21:46:23.425Z,21.80
2022-08-03T21:50:06.776Z,21.70
2022-08-03T21:51:50.525Z,21.70
2022-08-03T21:54:20.471Z,21.60
2022-08-03T21:56:51.024Z,21.60
2022-08-03T21:59:20.500Z,21.60
2022-08-03T22:01:51.416Z,21.60
2022-08-03T22:04:50.204Z,21.50
2022-08-03T22:07:09.919Z,21.40
2022-08-03T22:09:37.231Z,21.40
2022-08-03T22:12:04.976Z,21.40
2022-08-03T22:14:34.871Z,21.30
2022-08-03T22:17:03.351Z,21.20
2022-08-03T22:19:33.408Z,21.20
2022-08-03T22:22:01.607Z,21.30
2022-08-03T22:24:32.085Z,21.20
2022-08-03T22:27:21.386Z,21.00
2022-08-03T22:29:50.331Z,21.00
2022-08-03T22:32:17.373Z,21.00
2022-08-03T22:34:47.518Z,21.00
2022-08-03T22:37:18.325Z,20.80
2022-08-03T22:39:45.874Z,20.90
2022-08-03T22:42:13.682Z,20.90
2022-08-03T22:44:40.744Z,20.80
2022-08-03T22:47:09.762Z,20.70
2022-08-03T22:49:37.856Z,20.70
2022-08-03T22:52:05.891Z,20.70
2022-08-03T22:54:33.585Z,20.70
2022-08-03T22:57:01.197Z,20.70
2022-08-03T22:59:39.829Z,20.50
2022-08-03T23:02:21.027Z,20.50
2022-08-03T23:04:56.404Z,20.50
2022-08-03T23:07:35.640Z,20.60
2022-08-03T23:10:07.981Z,20.30
2022-08-03T23:12:37.091Z,20.20
2022-08-03T23:15:07.371Z,20.20
2022-08-03T23:17:37.394Z,20.20
2022-08-03T23:20:26.775Z,20.20
2022-08-03T23:22:55.525Z,20.20
2022-08-03T23:25:22.852Z,20.00
2022-08-03T23:28:05.500Z,20.00
2022-08-03T23:30:37.205Z,20.10
2022-08-03T23:33:04.712Z,20.10
2022-08-03T23:36:27.583Z,20.00
2022-08-03T23:38:37.391Z,20.00
2022-08-03T23:41:05.176Z,19.80
2022-08-03T23:43:51.236Z,19.80
2022-08-03T23:46:21.572Z,19.90
2022-08-03T23:48:48.613Z,19.90
2022-08-03T23:51:36.590Z,19.90
2022-08-03T23:54:24.271Z,19.90
2022-08-03T23:57:23.515Z,19.90
